sensor_id;sensor_type;location;lat;lon;timestamp;pressure;altitude;pressure_sealevel;temperature;humidity
71344;BME280;59146;43.850;25.948;2023-02-13T00:00:11;103240.59;;;1.19;62.10
71344;BME280;59146;43.850;25.948;2023-02-13T00:02:37;103198.88;;;0.95;61.29
71344;BME280;59146;43.850;25.948;2023-02-13T00:05:02;103280.59;;;1.44;61.58
71344;BME280;59146;43.850;25.948;2023-02-13T00:07:28;103249.13;;;1.18;61.59
71344;BME280;59146;43.850;25.948;2023-02-13T00:09:53;103187.03;;;1.03;61.10
71344;BME280;59146;43.850;25.948;2023-02-13T00:12:18;103295.47;;;1.57;61.40
71344;BME280;59146;43.850;25.948;2023-02-13T00:14:44;103307.81;;;1.73;61.14
71344;BME280;59146;43.850;25.948;2023-02-13T00:17:09;103310.28;;;1.69;61.70
71344;BME280;59146;43.850;25.948;2023-02-13T00:19:35;103297.19;;;1.58;62.33
71344;BME280;59146;43.850;25.948;2023-02-13T00:22:00;103306.00;;;1.69;61.45
71344;BME280;59146;43.850;25.948;2023-02-13T00:24:26;103213.00;;;1.15;60.92
71344;BME280;59146;43.850;25.948;2023-02-13T00:26:51;103303.56;;;1.75;60.52
71344;BME280;59146;43.850;25.948;2023-02-13T00:29:16;103305.34;;;1.37;67.69
71344;BME280;59146;43.850;25.948;2023-02-13T00:31:42;103196.69;;;0.74;70.87
71344;BME280;59146;43.850;25.948;2023-02-13T00:34:07;103310.84;;;1.54;70.92
71344;BME280;59146;43.850;25.948;2023-02-13T00:36:33;103312.31;;;1.43;70.79
71344;BME280;59146;43.850;25.948;2023-02-13T00:38:58;103285.31;;;1.24;69.43
71344;BME280;59146;43.850;25.948;2023-02-13T00:41:23;103291.78;;;1.46;64.04
71344;BME280;59146;43.850;25.948;2023-02-13T00:43:49;103237.59;;;1.40;61.32
71344;BME280;59146;43.850;25.948;2023-02-13T00:46:15;103295.22;;;1.88;59.99
71344;BME280;59146;43.850;25.948;2023-02-13T00:48:41;103311.69;;;1.96;59.81
71344;BME280;59146;43.850;25.948;2023-02-13T00:51:08;103231.06;;;1.57;58.61
71344;BME280;59146;43.850;25.948;2023-02-13T00:53:35;103245.94;;;1.72;58.60
71344;BME280;59146;43.850;25.948;2023-02-13T00:56:01;103267.03;;;1.97;57.62
71344;BME280;59146;43.850;25.948;2023-02-13T00:58:27;103284.16;;;1.95;57.58
71344;BME280;59146;43.850;25.948;2023-02-13T01:00:53;103264.28;;;1.88;61.48
71344;BME280;59146;43.850;25.948;2023-02-13T01:03:20;103252.16;;;1.83;59.23
71344;BME280;59146;43.850;25.948;2023-02-13T01:05:46;103312.13;;;2.19;59.64
71344;BME280;59146;43.850;25.948;2023-02-13T01:08:12;103316.28;;;2.12;62.19
71344;BME280;59146;43.850;25.948;2023-02-13T01:10:40;103316.00;;;1.97;61.93
71344;BME280;59146;43.850;25.948;2023-02-13T01:13:06;103270.03;;;1.74;58.72
71344;BME280;59146;43.850;25.948;2023-02-13T01:15:32;103246.00;;;1.76;57.06
71344;BME280;59146;43.850;25.948;2023-02-13T01:17:58;103310.53;;;2.25;56.27
71344;BME280;59146;43.850;25.948;2023-02-13T01:20:25;103238.16;;;1.70;56.52
71344;BME280;59146;43.850;25.948;2023-02-13T01:22:50;103284.38;;;2.06;55.80
71344;BME280;59146;43.850;25.948;2023-02-13T01:25:16;103230.53;;;1.76;55.69
71344;BME280;59146;43.850;25.948;2023-02-13T01:27:41;103230.81;;;1.91;54.83
71344;BME280;59146;43.850;25.948;2023-02-13T01:30:09;103272.28;;;2.03;55.56
71344;BME280;59146;43.850;25.948;2023-02-13T01:32:41;103217.34;;;1.59;55.76
71344;BME280;59146;43.850;25.948;2023-02-13T01:35:08;103293.69;;;1.98;56.14
71344;BME280;59146;43.850;25.948;2023-02-13T01:37:33;103278.31;;;2.04;56.28
71344;BME280;59146;43.850;25.948;2023-02-13T01:39:59;103212.88;;;1.51;55.87
71344;BME280;59146;43.850;25.948;2023-02-13T01:42:28;103230.09;;;1.52;56.62
71344;BME280;59146;43.850;25.948;2023-02-13T01:44:59;103287.53;;;1.91;55.95
71344;BME280;59146;43.850;25.948;2023-02-13T01:50:08;103308.34;;;2.00;55.50
71344;BME280;59146;43.850;25.948;2023-02-13T01:52:36;103295.13;;;1.84;56.25
71344;BME280;59146;43.850;25.948;2023-02-13T01:55:05;103302.97;;;1.88;56.95
71344;BME280;59146;43.850;25.948;2023-02-13T01:57:31;103217.97;;;1.46;55.63
71344;BME280;59146;43.850;25.948;2023-02-13T02:00:01;103235.91;;;1.42;55.86
71344;BME280;59146;43.850;25.948;2023-02-13T02:02:30;103257.66;;;1.56;56.30
71344;BME280;59146;43.850;25.948;2023-02-13T02:04:58;103218.00;;;1.48;55.89
71344;BME280;59146;43.850;25.948;2023-02-13T02:07:25;103270.97;;;1.79;55.54
71344;BME280;59146;43.850;25.948;2023-02-13T02:09:54;103278.72;;;1.80;55.90
71344;BME280;59146;43.850;25.948;2023-02-13T02:12:35;103308.22;;;1.94;55.88
71344;BME280;59146;43.850;25.948;2023-02-13T02:15:04;103236.34;;;1.65;55.65
71344;BME280;59146;43.850;25.948;2023-02-13T02:17:30;103284.34;;;2.04;55.48
71344;BME280;59146;43.850;25.948;2023-02-13T02:33:40;103249.03;;;1.55;55.08
71344;BME280;59146;43.850;25.948;2023-02-13T03:00:54;103220.97;;;1.26;54.85
71344;BME280;59146;43.850;25.948;2023-02-13T03:03:39;103208.00;;;1.21;54.57
71344;BME280;59146;43.850;25.948;2023-02-13T03:06:28;103226.25;;;1.32;55.03
71344;BME280;59146;43.850;25.948;2023-02-13T03:08:59;103267.63;;;1.41;55.26
71344;BME280;59146;43.850;25.948;2023-02-13T03:11:48;103222.59;;;1.21;55.45
71344;BME280;59146;43.850;25.948;2023-02-13T03:14:33;103293.72;;;1.56;55.74
71344;BME280;59146;43.850;25.948;2023-02-13T03:16:59;103215.63;;;1.17;55.33
71344;BME280;59146;43.850;25.948;2023-02-13T03:19:57;103219.72;;;1.07;55.72
71344;BME280;59146;43.850;25.948;2023-02-13T03:25:51;103284.97;;;1.48;55.44
71344;BME280;59146;43.850;25.948;2023-02-13T03:28:40;103216.13;;;1.01;56.00
71344;BME280;59146;43.850;25.948;2023-02-13T03:31:51;103278.59;;;1.32;56.05
71344;BME280;59146;43.850;25.948;2023-02-13T03:34:27;103225.81;;;1.11;55.82
71344;BME280;59146;43.850;25.948;2023-02-13T03:37:17;103269.13;;;1.30;55.29
71344;BME280;59146;43.850;25.948;2023-02-13T03:40:15;103180.22;;;0.66;55.47
71344;BME280;59146;43.850;25.948;2023-02-13T03:43:02;103296.84;;;1.41;55.66
71344;BME280;59146;43.850;25.948;2023-02-13T03:45:36;103220.44;;;1.00;55.60
71344;BME280;59146;43.850;25.948;2023-02-13T03:48:25;103236.16;;;1.14;55.60
71344;BME280;59146;43.850;25.948;2023-02-13T03:51:14;103295.91;;;1.38;56.29
71344;BME280;59146;43.850;25.948;2023-02-13T03:53:42;103287.88;;;1.24;57.97
71344;BME280;59146;43.850;25.948;2023-02-13T03:56:12;103241.94;;;1.02;59.18
71344;BME280;59146;43.850;25.948;2023-02-13T03:58:57;103244.72;;;0.75;61.80
71344;BME280;59146;43.850;25.948;2023-02-13T04:01:38;103267.00;;;1.11;60.33
71344;BME280;59146;43.850;25.948;2023-02-13T04:04:19;103295.00;;;1.36;59.79
71344;BME280;59146;43.850;25.948;2023-02-13T04:06:58;103296.41;;;1.22;58.89
71344;BME280;59146;43.850;25.948;2023-02-13T04:09:26;103280.78;;;1.13;58.28
71344;BME280;59146;43.850;25.948;2023-02-13T04:12:15;103307.69;;;1.27;57.00
71344;BME280;59146;43.850;25.948;2023-02-13T04:14:56;103298.75;;;1.11;57.30
71344;BME280;59146;43.850;25.948;2023-02-13T04:17:29;103224.00;;;0.69;57.38
71344;BME280;59146;43.850;25.948;2023-02-13T04:19:58;103202.94;;;0.48;57.69
71344;BME280;59146;43.850;25.948;2023-02-13T04:22:23;103239.53;;;0.72;57.69
71344;BME280;59146;43.850;25.948;2023-02-13T04:24:49;103225.56;;;0.63;57.51
71344;BME280;59146;43.850;25.948;2023-02-13T04:27:15;103244.81;;;0.78;57.24
71344;BME280;59146;43.850;25.948;2023-02-13T04:29:41;103275.16;;;0.93;57.46
71344;BME280;59146;43.850;25.948;2023-02-13T04:32:09;103122.69;;;-0.10;57.09
71344;BME280;59146;43.850;25.948;2023-02-13T04:34:35;103284.16;;;0.74;57.66
71344;BME280;59146;43.850;25.948;2023-02-13T04:37:01;103226.09;;;0.48;57.69
71344;BME280;59146;43.850;25.948;2023-02-13T04:39:26;103299.72;;;0.79;57.82
71344;BME280;59146;43.850;25.948;2023-02-13T04:41:51;103289.44;;;0.79;57.85
71344;BME280;59146;43.850;25.948;2023-02-13T04:44:17;103276.59;;;0.80;56.81
71344;BME280;59146;43.850;25.948;2023-02-13T04:46:42;103244.94;;;0.47;57.39
71344;BME280;59146;43.850;25.948;2023-02-13T04:49:09;103294.78;;;0.88;57.11
71344;BME280;59146;43.850;25.948;2023-02-13T04:51:34;103305.94;;;0.89;57.98
71344;BME280;59146;43.850;25.948;2023-02-13T04:54:00;103302.09;;;0.71;58.39
71344;BME280;59146;43.850;25.948;2023-02-13T04:56:25;103265.69;;;0.55;58.23
71344;BME280;59146;43.850;25.948;2023-02-13T04:58:51;103249.53;;;0.25;59.00
71344;BME280;59146;43.850;25.948;2023-02-13T05:01:16;103316.59;;;0.68;59.01
71344;BME280;59146;43.850;25.948;2023-02-13T05:03:42;103278.28;;;0.44;60.52
71344;BME280;59146;43.850;25.948;2023-02-13T05:06:08;103229.00;;;-0.07;61.69
71344;BME280;59146;43.850;25.948;2023-02-13T05:08:34;103306.28;;;0.34;62.46
71344;BME280;59146;43.850;25.948;2023-02-13T05:10:59;103262.84;;;0.10;62.83
71344;BME280;59146;43.850;25.948;2023-02-13T05:13:25;103330.16;;;0.28;64.01
71344;BME280;59146;43.850;25.948;2023-02-13T05:15:50;103316.13;;;0.17;64.64
71344;BME280;59146;43.850;25.948;2023-02-13T05:18:17;103331.91;;;0.29;65.03
71344;BME280;59146;43.850;25.948;2023-02-13T05:20:43;103274.81;;;-0.23;64.88
71344;BME280;59146;43.850;25.948;2023-02-13T05:23:13;103122.69;;;-1.07;65.69
71344;BME280;59146;43.850;25.948;2023-02-13T05:25:48;103283.78;;;-0.08;65.75
71344;BME280;59146;43.850;25.948;2023-02-13T05:28:14;103326.78;;;0.29;65.18
71344;BME280;59146;43.850;25.948;2023-02-13T05:30:58;103338.59;;;0.23;64.49
71344;BME280;59146;43.850;25.948;2023-02-13T05:33:23;103276.63;;;-0.50;65.25
71344;BME280;59146;43.850;25.948;2023-02-13T05:35:49;103329.88;;;-0.14;65.40
71344;BME280;59146;43.850;25.948;2023-02-13T05:38:14;103338.44;;;-0.43;66.38
71344;BME280;59146;43.850;25.948;2023-02-13T05:40:40;103339.06;;;-0.22;66.44
71344;BME280;59146;43.850;25.948;2023-02-13T05:43:05;103319.28;;;-0.24;66.13
71344;BME280;59146;43.850;25.948;2023-02-13T05:45:30;103289.81;;;-0.37;65.63
71344;BME280;59146;43.850;25.948;2023-02-13T05:47:56;103289.69;;;-0.41;65.28
71344;BME280;59146;43.850;25.948;2023-02-13T05:50:24;103294.47;;;-0.53;65.97
71344;BME280;59146;43.850;25.948;2023-02-13T05:52:49;103293.75;;;-0.49;66.40
71344;BME280;59146;43.850;25.948;2023-02-13T05:55:15;103336.31;;;0.02;65.82
71344;BME280;59146;43.850;25.948;2023-02-13T05:57:40;103309.75;;;0.34;64.33
71344;BME280;59146;43.850;25.948;2023-02-13T06:00:06;103291.47;;;0.92;61.42
71344;BME280;59146;43.850;25.948;2023-02-13T06:02:32;103356.53;;;1.63;59.45
71344;BME280;59146;43.850;25.948;2023-02-13T06:04:57;103243.97;;;1.17;58.20
71344;BME280;59146;43.850;25.948;2023-02-13T06:07:23;103359.50;;;2.24;57.19
71344;BME280;59146;43.850;25.948;2023-02-13T06:09:48;103322.81;;;2.38;56.09
71344;BME280;59146;43.850;25.948;2023-02-13T06:12:13;103243.38;;;2.21;54.92
71344;BME280;59146;43.850;25.948;2023-02-13T06:14:39;103309.50;;;2.67;54.72
71344;BME280;59146;43.850;25.948;2023-02-13T06:17:04;103365.47;;;3.23;54.18
71344;BME280;59146;43.850;25.948;2023-02-13T06:19:30;103330.31;;;3.33;53.02
71344;BME280;59146;43.850;25.948;2023-02-13T06:21:55;103343.41;;;3.43;52.85
71344;BME280;59146;43.850;25.948;2023-02-13T06:24:21;103300.34;;;3.45;51.85
71344;BME280;59146;43.850;25.948;2023-02-13T06:26:46;103290.22;;;3.62;51.90
71344;BME280;59146;43.850;25.948;2023-02-13T06:29:11;103310.22;;;3.78;51.06
71344;BME280;59146;43.850;25.948;2023-02-13T06:31:37;103314.63;;;3.85;50.82
71344;BME280;59146;43.850;25.948;2023-02-13T06:34:02;103280.09;;;3.80;50.36
71344;BME280;59146;43.850;25.948;2023-02-13T06:36:29;103353.03;;;4.27;50.30
71344;BME280;59146;43.850;25.948;2023-02-13T06:38:54;103271.66;;;3.97;50.30
71344;BME280;59146;43.850;25.948;2023-02-13T06:41:20;103286.56;;;4.24;49.52
71344;BME280;59146;43.850;25.948;2023-02-13T06:43:46;103305.47;;;4.17;49.88
71344;BME280;59146;43.850;25.948;2023-02-13T06:46:11;103338.56;;;4.48;49.70
71344;BME280;59146;43.850;25.948;2023-02-13T06:48:37;103332.53;;;4.51;49.55
71344;BME280;59146;43.850;25.948;2023-02-13T06:51:02;103281.13;;;3.97;49.83
71344;BME280;59146;43.850;25.948;2023-02-13T06:53:28;103326.91;;;4.04;50.54
71344;BME280;59146;43.850;25.948;2023-02-13T06:55:54;103320.81;;;4.00;50.52
71344;BME280;59146;43.850;25.948;2023-02-13T06:58:21;103321.03;;;4.20;50.37
71344;BME280;59146;43.850;25.948;2023-02-13T07:00:47;103337.25;;;4.06;50.78
71344;BME280;59146;43.850;25.948;2023-02-13T07:03:13;103256.34;;;3.39;51.82
71344;BME280;59146;43.850;25.948;2023-02-13T07:05:42;103317.41;;;4.03;51.24
71344;BME280;59146;43.850;25.948;2023-02-13T07:08:09;103159.00;;;2.69;52.32
71344;BME280;59146;43.850;25.948;2023-02-13T07:10:40;103275.59;;;3.64;52.01
71344;BME280;59146;43.850;25.948;2023-02-13T07:13:06;103262.81;;;3.77;51.37
71344;BME280;59146;43.850;25.948;2023-02-13T07:15:33;103262.19;;;3.99;51.32
71344;BME280;59146;43.850;25.948;2023-02-13T07:17:59;103268.31;;;4.06;51.01
71344;BME280;59146;43.850;25.948;2023-02-13T07:20:25;103198.13;;;3.73;51.46
71344;BME280;59146;43.850;25.948;2023-02-13T07:22:51;103276.22;;;4.24;51.56
71344;BME280;59146;43.850;25.948;2023-02-13T07:25:17;103270.91;;;4.06;51.82
71344;BME280;59146;43.850;25.948;2023-02-13T07:27:43;103253.00;;;4.30;50.87
71344;BME280;59146;43.850;25.948;2023-02-13T07:30:09;103257.97;;;4.11;51.50
71344;BME280;59146;43.850;25.948;2023-02-13T07:32:34;103310.13;;;4.50;51.23
71344;BME280;59146;43.850;25.948;2023-02-13T07:35:00;103243.81;;;3.75;52.09
71344;BME280;59146;43.850;25.948;2023-02-13T07:37:29;103254.50;;;4.09;51.66
71344;BME280;59146;43.850;25.948;2023-02-13T07:39:55;103275.28;;;4.15;52.32
71344;BME280;59146;43.850;25.948;2023-02-13T07:42:21;103239.53;;;3.76;51.78
71344;BME280;59146;43.850;25.948;2023-02-13T07:44:46;103290.72;;;4.06;51.88
71344;BME280;59146;43.850;25.948;2023-02-13T07:47:11;103229.13;;;3.68;52.53
71344;BME280;59146;43.850;25.948;2023-02-13T07:49:37;103266.44;;;3.96;52.46
71344;BME280;59146;43.850;25.948;2023-02-13T07:52:04;103263.09;;;4.03;51.64
71344;BME280;59146;43.850;25.948;2023-02-13T07:54:30;103250.63;;;3.67;52.03
71344;BME280;59146;43.850;25.948;2023-02-13T07:56:56;103275.53;;;3.58;53.16
71344;BME280;59146;43.850;25.948;2023-02-13T07:59:22;103293.34;;;4.12;52.56
71344;BME280;59146;43.850;25.948;2023-02-13T08:01:47;103294.38;;;4.29;51.97
71344;BME280;59146;43.850;25.948;2023-02-13T08:04:12;103254.69;;;4.28;51.68
71344;BME280;59146;43.850;25.948;2023-02-13T08:06:41;103274.56;;;4.34;51.38
71344;BME280;59146;43.850;25.948;2023-02-13T08:09:13;103227.69;;;3.99;51.59
71344;BME280;59146;43.850;25.948;2023-02-13T08:12:00;103267.47;;;4.10;51.57
71344;BME280;59146;43.850;25.948;2023-02-13T08:14:26;103197.34;;;3.78;51.92
71344;BME280;59146;43.850;25.948;2023-02-13T08:16:53;103263.19;;;4.14;52.56
71344;BME280;59146;43.850;25.948;2023-02-13T08:19:18;103256.91;;;3.89;54.18
71344;BME280;59146;43.850;25.948;2023-02-13T08:21:44;103288.91;;;3.98;54.68
71344;BME280;59146;43.850;25.948;2023-02-13T08:24:10;103223.06;;;3.66;55.16
71344;BME280;59146;43.850;25.948;2023-02-13T08:26:35;103222.13;;;3.60;55.28
71344;BME280;59146;43.850;25.948;2023-02-13T08:29:02;103233.47;;;3.72;55.01
71344;BME280;59146;43.850;25.948;2023-02-13T08:31:28;103252.56;;;3.86;55.06
71344;BME280;59146;43.850;25.948;2023-02-13T08:33:55;103259.16;;;3.57;56.46
71344;BME280;59146;43.850;25.948;2023-02-13T08:36:20;103271.50;;;3.84;56.28
71344;BME280;59146;43.850;25.948;2023-02-13T08:38:46;103262.63;;;3.59;56.05
71344;BME280;59146;43.850;25.948;2023-02-13T08:41:12;103215.91;;;3.41;56.60
71344;BME280;59146;43.850;25.948;2023-02-13T08:43:38;103191.00;;;3.51;55.77
71344;BME280;59146;43.850;25.948;2023-02-13T08:46:03;103266.75;;;4.28;54.88
71344;BME280;59146;43.850;25.948;2023-02-13T08:48:29;103151.69;;;3.83;54.53
71344;BME280;59146;43.850;25.948;2023-02-13T08:50:54;103205.50;;;4.21;53.46
71344;BME280;59146;43.850;25.948;2023-02-13T08:53:20;103178.56;;;3.97;52.45
71344;BME280;59146;43.850;25.948;2023-02-13T08:55:53;103227.31;;;4.54;51.77
71344;BME280;59146;43.850;25.948;2023-02-13T08:58:20;103253.38;;;4.78;51.59
71344;BME280;59146;43.850;25.948;2023-02-13T09:00:45;103274.22;;;4.98;50.71
71344;BME280;59146;43.850;25.948;2023-02-13T09:03:11;103219.78;;;4.88;50.53
71344;BME280;59146;43.850;25.948;2023-02-13T09:05:36;103198.16;;;4.82;49.39
71344;BME280;59146;43.850;25.948;2023-02-13T09:08:02;103208.56;;;4.93;49.16
71344;BME280;59146;43.850;25.948;2023-02-13T09:10:29;103208.66;;;5.11;49.16
71344;BME280;59146;43.850;25.948;2023-02-13T09:12:55;103233.84;;;5.39;48.39
71344;BME280;59146;43.850;25.948;2023-02-13T09:15:20;103215.72;;;5.45;47.52
71344;BME280;59146;43.850;25.948;2023-02-13T09:17:46;103149.09;;;5.19;46.86
71344;BME280;59146;43.850;25.948;2023-02-13T09:20:12;103179.47;;;5.60;46.84
71344;BME280;59146;43.850;25.948;2023-02-13T09:22:40;103227.94;;;5.86;46.78
71344;BME280;59146;43.850;25.948;2023-02-13T09:25:06;103239.25;;;6.07;47.13
71344;BME280;59146;43.850;25.948;2023-02-13T09:27:32;103212.38;;;5.89;47.24
71344;BME280;59146;43.850;25.948;2023-02-13T09:29:59;103161.31;;;5.65;47.47
71344;BME280;59146;43.850;25.948;2023-02-13T09:32:25;103220.22;;;6.07;47.21
71344;BME280;59146;43.850;25.948;2023-02-13T09:34:50;103202.03;;;6.28;47.25
71344;BME280;59146;43.850;25.948;2023-02-13T09:37:16;103167.44;;;6.15;46.93
71344;BME280;59146;43.850;25.948;2023-02-13T09:39:41;103153.56;;;6.33;46.69
71344;BME280;59146;43.850;25.948;2023-02-13T09:42:33;103205.47;;;6.57;47.61
71344;BME280;59146;43.850;25.948;2023-02-13T09:45:03;103125.94;;;6.05;46.96
71344;BME280;59146;43.850;25.948;2023-02-13T09:47:39;103205.44;;;6.75;46.91
71344;BME280;59146;43.850;25.948;2023-02-13T09:50:20;103124.13;;;6.49;46.08
71344;BME280;59146;43.850;25.948;2023-02-13T09:52:48;103145.75;;;6.57;46.43
71344;BME280;59146;43.850;25.948;2023-02-13T09:55:45;103160.44;;;6.64;46.42
71344;BME280;59146;43.850;25.948;2023-02-13T10:01:02;103151.75;;;6.85;46.75
71344;BME280;59146;43.850;25.948;2023-02-13T10:03:54;103101.63;;;6.42;46.96
71344;BME280;59146;43.850;25.948;2023-02-13T10:06:32;103156.06;;;6.84;47.69
71344;BME280;59146;43.850;25.948;2023-02-13T10:09:13;103108.47;;;6.72;47.43
71344;BME280;59146;43.850;25.948;2023-02-13T10:14:44;103097.19;;;6.79;47.78
71344;BME280;59146;43.850;25.948;2023-02-13T10:17:18;103140.22;;;7.37;47.23
71344;BME280;59146;43.850;25.948;2023-02-13T10:19:52;103126.38;;;7.29;47.36
71344;BME280;59146;43.850;25.948;2023-02-13T10:24:51;103069.22;;;7.26;46.96
71344;BME280;59146;43.850;25.948;2023-02-13T10:27:34;103067.53;;;7.22;47.94
71344;BME280;59146;43.850;25.948;2023-02-13T10:30:27;103074.50;;;7.11;49.04
71344;BME280;59146;43.850;25.948;2023-02-13T10:38:39;103101.28;;;7.23;49.32
71344;BME280;59146;43.850;25.948;2023-02-13T10:41:49;103104.00;;;7.07;49.52
71344;BME280;59146;43.850;25.948;2023-02-13T10:47:02;103105.75;;;7.03;51.55
71344;BME280;59146;43.850;25.948;2023-02-13T10:52:22;103102.13;;;7.27;50.86
71344;BME280;59146;43.850;25.948;2023-02-13T10:58:08;103069.28;;;7.15;49.84
71344;BME280;59146;43.850;25.948;2023-02-13T11:00:45;103080.47;;;7.30;50.24
71344;BME280;59146;43.850;25.948;2023-02-13T11:03:17;103019.13;;;7.01;50.01
71344;BME280;59146;43.850;25.948;2023-02-13T11:05:43;103025.97;;;7.16;50.16
71344;BME280;59146;43.850;25.948;2023-02-13T11:08:39;103062.25;;;7.31;49.92
71344;BME280;59146;43.850;25.948;2023-02-13T11:11:02;103002.69;;;6.99;48.52
71344;BME280;59146;43.850;25.948;2023-02-13T11:13:29;103000.91;;;7.07;49.70
71344;BME280;59146;43.850;25.948;2023-02-13T11:18:29;103049.03;;;7.58;49.91
71344;BME280;59146;43.850;25.948;2023-02-13T11:23:36;103050.50;;;7.88;49.25
71344;BME280;59146;43.850;25.948;2023-02-13T11:26:11;103003.09;;;7.60;49.86
71344;BME280;59146;43.850;25.948;2023-02-13T11:28:46;103008.28;;;7.62;50.15
71344;BME280;59146;43.850;25.948;2023-02-13T11:31:35;103058.41;;;7.77;50.96
71344;BME280;59146;43.850;25.948;2023-02-13T11:34:24;103057.50;;;7.81;51.51
71344;BME280;59146;43.850;25.948;2023-02-13T11:37:07;103029.75;;;7.85;51.47
71344;BME280;59146;43.850;25.948;2023-02-13T11:39:39;103046.25;;;7.79;52.19
71344;BME280;59146;43.850;25.948;2023-02-13T11:42:34;103033.31;;;7.72;53.51
71344;BME280;59146;43.850;25.948;2023-02-13T11:45:06;102976.38;;;7.43;53.79
71344;BME280;59146;43.850;25.948;2023-02-13T11:47:39;103006.94;;;8.08;53.03
71344;BME280;59146;43.850;25.948;2023-02-13T11:53:35;102930.25;;;7.59;52.55
71344;BME280;59146;43.850;25.948;2023-02-13T11:55:37;102910.28;;;7.64;52.47
71344;BME280;59146;43.850;25.948;2023-02-13T11:58:22;102978.53;;;7.85;52.44
71344;BME280;59146;43.850;25.948;2023-02-13T12:00:47;102933.84;;;7.46;52.67
71344;BME280;59146;43.850;25.948;2023-02-13T12:03:29;103021.84;;;7.92;53.24
71344;BME280;59146;43.850;25.948;2023-02-13T12:06:15;102938.63;;;7.86;52.81
71344;BME280;59146;43.850;25.948;2023-02-13T12:08:45;102966.59;;;7.68;53.54
71344;BME280;59146;43.850;25.948;2023-02-13T12:13:46;102949.94;;;7.84;53.09
71344;BME280;59146;43.850;25.948;2023-02-13T12:18:52;102907.38;;;7.91;52.64
71344;BME280;59146;43.850;25.948;2023-02-13T12:21:39;102997.03;;;8.42;52.34
71344;BME280;59146;43.850;25.948;2023-02-13T12:26:39;102929.50;;;8.24;51.74
71344;BME280;59146;43.850;25.948;2023-02-13T12:43:22;102989.38;;;8.28;54.00
71344;BME280;59146;43.850;25.948;2023-02-13T12:46:02;102806.91;;;7.03;54.39
71344;BME280;59146;43.850;25.948;2023-02-13T12:48:39;102969.66;;;8.06;55.17
71344;BME280;59146;43.850;25.948;2023-02-13T13:02:43;102921.97;;;8.04;55.11
71344;BME280;59146;43.850;25.948;2023-02-13T13:10:34;102978.97;;;8.28;54.98
71344;BME280;59146;43.850;25.948;2023-02-13T13:27:56;102856.72;;;7.45;55.27
71344;BME280;59146;43.850;25.948;2023-02-13T13:30:32;102963.56;;;8.07;55.36
71344;BME280;59146;43.850;25.948;2023-02-13T13:35:43;102927.81;;;8.23;54.79
71344;BME280;59146;43.850;25.948;2023-02-13T13:38:18;102867.69;;;7.72;55.42
71344;BME280;59146;43.850;25.948;2023-02-13T13:40:55;102946.84;;;8.29;54.38
71344;BME280;59146;43.850;25.948;2023-02-13T13:43:31;102877.09;;;7.82;54.96
71344;BME280;59146;43.850;25.948;2023-02-13T13:46:13;102886.88;;;7.61;55.26
71344;BME280;59146;43.850;25.948;2023-02-13T13:51:13;102871.00;;;7.83;54.13
71344;BME280;59146;43.850;25.948;2023-02-13T13:56:24;102885.16;;;7.61;55.69
71344;BME280;59146;43.850;25.948;2023-02-13T13:58:50;102924.75;;;7.89;55.88
71344;BME280;59146;43.850;25.948;2023-02-13T14:01:29;102868.50;;;7.76;55.40
71344;BME280;59146;43.850;25.948;2023-02-13T14:09:38;102850.50;;;7.59;55.33
71344;BME280;59146;43.850;25.948;2023-02-13T14:14:59;102843.66;;;7.51;55.92
71344;BME280;59146;43.850;25.948;2023-02-13T14:20:34;102916.94;;;7.89;55.78
71344;BME280;59146;43.850;25.948;2023-02-13T14:25:41;102913.63;;;7.75;56.16
71344;BME280;59146;43.850;25.948;2023-02-13T14:30:44;102905.94;;;7.63;56.47
71344;BME280;59146;43.850;25.948;2023-02-13T14:33:23;102881.06;;;7.38;56.64
71344;BME280;59146;43.850;25.948;2023-02-13T14:36:19;102898.34;;;7.45;56.83
71344;BME280;59146;43.850;25.948;2023-02-13T14:38:55;102914.72;;;7.53;56.82
71344;BME280;59146;43.850;25.948;2023-02-13T14:41:43;102925.91;;;7.61;56.87
71344;BME280;59146;43.850;25.948;2023-02-13T14:44:42;102921.72;;;7.46;57.37
71344;BME280;59146;43.850;25.948;2023-02-13T14:47:35;102860.56;;;7.04;57.75
71344;BME280;59146;43.850;25.948;2023-02-13T14:50:03;102912.19;;;7.44;57.85
71344;BME280;59146;43.850;25.948;2023-02-13T14:52:37;102933.91;;;7.41;58.21
71344;BME280;59146;43.850;25.948;2023-02-13T14:55:13;102875.22;;;7.13;58.60
71344;BME280;59146;43.850;25.948;2023-02-13T14:57:47;102928.81;;;7.31;58.89
71344;BME280;59146;43.850;25.948;2023-02-13T15:00:27;102925.28;;;7.33;59.22
71344;BME280;59146;43.850;25.948;2023-02-13T15:02:59;102912.34;;;7.30;59.33
71344;BME280;59146;43.850;25.948;2023-02-13T15:05:36;102846.88;;;6.86;59.61
71344;BME280;59146;43.850;25.948;2023-02-13T15:08:11;102913.25;;;7.25;59.56
71344;BME280;59146;43.850;25.948;2023-02-13T15:10:48;102913.38;;;7.11;60.43
71344;BME280;59146;43.850;25.948;2023-02-13T15:13:17;102910.78;;;7.08;60.58
71344;BME280;59146;43.850;25.948;2023-02-13T15:15:50;102842.69;;;6.67;60.46
71344;BME280;59146;43.850;25.948;2023-02-13T15:18:22;102809.13;;;6.41;60.63
71344;BME280;59146;43.850;25.948;2023-02-13T15:20:49;102856.53;;;6.72;60.93
71344;BME280;59146;43.850;25.948;2023-02-13T15:23:23;102907.47;;;6.92;60.93
71344;BME280;59146;43.850;25.948;2023-02-13T15:26:00;102868.72;;;6.64;61.09
71344;BME280;59146;43.850;25.948;2023-02-13T15:28:27;102895.47;;;6.73;61.25
71344;BME280;59146;43.850;25.948;2023-02-13T15:30:58;102898.19;;;6.57;62.07
71344;BME280;59146;43.850;25.948;2023-02-13T15:33:32;102858.50;;;6.30;62.25
71344;BME280;59146;43.850;25.948;2023-02-13T15:36:03;102835.25;;;6.17;62.32
71344;BME280;59146;43.850;25.948;2023-02-13T15:38:32;102718.03;;;5.36;62.67
71344;BME280;59146;43.850;25.948;2023-02-13T15:41:02;102869.84;;;6.22;62.88